sensor_id;sensor_type;location;lat;lon;timestamp;temperature;humidity
28244;DHT22;15510;52.512;13.300;2023-09-19T00:01:47;19.10;99.90
28244;DHT22;15510;52.512;13.300;2023-09-19T00:04:16;19.00;99.90
28244;DHT22;15510;52.512;13.300;2023-09-19T00:06:47;19.00;99.90
28244;DHT22;15510;52.512;13.300;2023-09-19T00:09:13;19.00;99.90
28244;DHT22;15510;52.512;13.300;2023-09-19T00:11:40;19.00;99.90
28244;DHT22;15510;52.512;13.300;2023-09-19T00:14:07;19.10;99.90
28244;DHT22;15510;52.512;13.300;2023-09-19T00:16:34;19.00;99.90
28244;DHT22;15510;52.512;13.300;2023-09-19T00:19:01;19.00;99.90
28244;DHT22;15510;52.512;13.300;2023-09-19T00:21:31;19.00;99.90
28244;DHT22;15510;52.512;13.300;2023-09-19T00:23:57;19.00;99.90
28244;DHT22;15510;52.512;13.300;2023-09-19T00:26:23;19.00;99.90
28244;DHT22;15510;52.512;13.300;2023-09-19T00:28:52;18.90;99.90
28244;DHT22;15510;52.512;13.300;2023-09-19T00:31:18;19.00;99.90
28244;DHT22;15510;52.512;13.300;2023-09-19T00:33:44;18.90;99.90
28244;DHT22;15510;52.512;13.300;2023-09-19T00:36:10;18.90;99.90
28244;DHT22;15510;52.512;13.300;2023-09-19T00:38:35;18.80;99.90
28244;DHT22;15510;52.512;13.300;2023-09-19T00:41:01;18.90;99.90
28244;DHT22;15510;52.512;13.300;2023-09-19T00:43:27;18.80;99.90
28244;DHT22;15510;52.512;13.300;2023-09-19T00:45:56;18.80;99.90
28244;DHT22;15510;52.512;13.300;2023-09-19T00:48:23;18.80;99.90
28244;DHT22;15510;52.512;13.300;2023-09-19T00:50:53;18.80;99.90
28244;DHT22;15510;52.512;13.300;2023-09-19T00:53:21;18.70;99.90
28244;DHT22;15510;52.512;13.300;2023-09-19T00:55:50;18.70;99.90
28244;DHT22;15510;52.512;13.300;2023-09-19T00:58:17;18.70;99.90
28244;DHT22;15510;52.512;13.300;2023-09-19T01:00:45;18.60;99.90
28244;DHT22;15510;52.512;13.300;2023-09-19T01:03:11;18.60;99.90
28244;DHT22;15510;52.512;13.300;2023-09-19T01:05:40;18.60;99.90
28244;DHT22;15510;52.512;13.300;2023-09-19T01:08:06;18.50;99.90
28244;DHT22;15510;52.512;13.300;2023-09-19T01:10:33;18.60;99.90
28244;DHT22;15510;52.512;13.300;2023-09-19T01:13:09;18.60;99.90
28244;DHT22;15510;52.512;13.300;2023-09-19T01:19:15;18.50;99.90
28244;DHT22;15510;52.512;13.300;2023-09-19T01:28:00;18.50;99.90
28244;DHT22;15510;52.512;13.300;2023-09-19T01:30:35;18.60;99.90
28244;DHT22;15510;52.512;13.300;2023-09-19T01:33:02;18.60;99.90
28244;DHT22;15510;52.512;13.300;2023-09-19T01:35:30;18.60;99.90
28244;DHT22;15510;52.512;13.300;2023-09-19T01:37:56;18.60;99.90
28244;DHT22;15510;52.512;13.300;2023-09-19T01:40:22;18.60;99.90
28244;DHT22;15510;52.512;13.300;2023-09-19T01:42:57;18.50;99.90
28244;DHT22;15510;52.512;13.300;2023-09-19T01:45:36;18.50;99.90
28244;DHT22;15510;52.512;13.300;2023-09-19T01:48:36;18.50;99.90
28244;DHT22;15510;52.512;13.300;2023-09-19T01:51:10;18.40;99.90
28244;DHT22;15510;52.512;13.300;2023-09-19T01:53:57;18.40;99.90
28244;DHT22;15510;52.512;13.300;2023-09-19T01:56:59;18.40;99.90
28244;DHT22;15510;52.512;13.300;2023-09-19T01:59:35;18.30;99.90
28244;DHT22;15510;52.512;13.300;2023-09-19T02:02:04;18.30;99.90
28244;DHT22;15510;52.512;13.300;2023-09-19T02:04:33;18.30;99.90
28244;DHT22;15510;52.512;13.300;2023-09-19T02:07:00;18.30;99.90
28244;DHT22;15510;52.512;13.300;2023-09-19T02:09:26;18.30;99.90
28244;DHT22;15510;52.512;13.300;2023-09-19T02:11:52;18.30;99.90
28244;DHT22;15510;52.512;13.300;2023-09-19T02:14:18;18.20;99.90
28244;DHT22;15510;52.512;13.300;2023-09-19T02:16:45;18.20;99.90
28244;DHT22;15510;52.512;13.300;2023-09-19T02:19:11;18.10;99.90
28244;DHT22;15510;52.512;13.300;2023-09-19T02:21:37;18.10;99.90
28244;DHT22;15510;52.512;13.300;2023-09-19T02:24:06;18.10;99.90
28244;DHT22;15510;52.512;13.300;2023-09-19T02:26:33;18.20;99.90
28244;DHT22;15510;52.512;13.300;2023-09-19T02:29:02;18.20;99.90
28244;DHT22;15510;52.512;13.300;2023-09-19T02:31:30;18.10;99.90
28244;DHT22;15510;52.512;13.300;2023-09-19T02:33:56;18.10;99.90
28244;DHT22;15510;52.512;13.300;2023-09-19T02:36:22;18.10;99.90
28244;DHT22;15510;52.512;13.300;2023-09-19T02:38:49;18.10;99.90
28244;DHT22;15510;52.512;13.300;2023-09-19T02:41:15;18.10;99.90
28244;DHT22;15510;52.512;13.300;2023-09-19T02:43:41;18.00;99.90
28244;DHT22;15510;52.512;13.300;2023-09-19T02:46:09;18.00;99.90
28244;DHT22;15510;52.512;13.300;2023-09-19T02:48:37;18.00;99.90
28244;DHT22;15510;52.512;13.300;2023-09-19T02:51:03;18.00;99.90
28244;DHT22;15510;52.512;13.300;2023-09-19T02:53:29;18.00;99.90
28244;DHT22;15510;52.512;13.300;2023-09-19T02:55:58;18.00;99.90
28244;DHT22;15510;52.512;13.300;2023-09-19T02:58:24;18.00;99.90
28244;DHT22;15510;52.512;13.300;2023-09-19T03:00:51;17.90;99.90
28244;DHT22;15510;52.512;13.300;2023-09-19T03:03:17;17.90;99.90
28244;DHT22;15510;52.512;13.300;2023-09-19T03:05:44;17.90;99.90
28244;DHT22;15510;52.512;13.300;2023-09-19T03:08:16;17.90;99.90
28244;DHT22;15510;52.512;13.300;2023-09-19T03:10:45;17.90;99.90
28244;DHT22;15510;52.512;13.300;2023-09-19T03:13:11;17.90;99.90
28244;DHT22;15510;52.512;13.300;2023-09-19T03:15:41;17.90;99.90
28244;DHT22;15510;52.512;13.300;2023-09-19T03:18:10;17.90;99.90
28244;DHT22;15510;52.512;13.300;2023-09-19T03:20:36;17.80;99.90
28244;DHT22;15510;52.512;13.300;2023-09-19T03:23:03;17.90;99.90
28244;DHT22;15510;52.512;13.300;2023-09-19T03:25:34;17.90;99.90
28244;DHT22;15510;52.512;13.300;2023-09-19T03:28:02;17.90;99.90
28244;DHT22;15510;52.512;13.300;2023-09-19T03:30:31;17.90;99.90
28244;DHT22;15510;52.512;13.300;2023-09-19T03:33:00;17.90;99.90
28244;DHT22;15510;52.512;13.300;2023-09-19T03:35:26;18.00;99.90
28244;DHT22;15510;52.512;13.300;2023-09-19T03:37:52;18.10;99.90
28244;DHT22;15510;52.512;13.300;2023-09-19T03:40:18;18.10;99.90
28244;DHT22;15510;52.512;13.300;2023-09-19T03:42:47;18.10;99.90
28244;DHT22;15510;52.512;13.300;2023-09-19T03:45:13;18.10;99.90
28244;DHT22;15510;52.512;13.300;2023-09-19T03:47:48;18.10;99.90
28244;DHT22;15510;52.512;13.300;2023-09-19T03:50:15;18.20;99.90
28244;DHT22;15510;52.512;13.300;2023-09-19T03:52:46;18.20;99.90
28244;DHT22;15510;52.512;13.300;2023-09-19T03:55:12;18.30;99.90
28244;DHT22;15510;52.512;13.300;2023-09-19T03:57:40;18.30;99.90
28244;DHT22;15510;52.512;13.300;2023-09-19T04:00:08;18.30;99.90
28244;DHT22;15510;52.512;13.300;2023-09-19T04:02:39;18.30;99.90
28244;DHT22;15510;52.512;13.300;2023-09-19T04:05:05;18.30;99.90
28244;DHT22;15510;52.512;13.300;2023-09-19T04:07:31;18.30;99.90
28244;DHT22;15510;52.512;13.300;2023-09-19T04:09:57;18.20;99.90
28244;DHT22;15510;52.512;13.300;2023-09-19T04:12:23;18.20;99.90
28244;DHT22;15510;52.512;13.300;2023-09-19T04:14:48;18.20;99.90
28244;DHT22;15510;52.512;13.300;2023-09-19T04:17:16;18.10;99.90
28244;DHT22;15510;52.512;13.300;2023-09-19T04:19:42;18.10;99.90
28244;DHT22;15510;52.512;13.300;2023-09-19T04:22:07;18.10;99.90
28244;DHT22;15510;52.512;13.300;2023-09-19T04:24:35;18.10;99.90
28244;DHT22;15510;52.512;13.300;2023-09-19T04:27:00;18.10;99.90
28244;DHT22;15510;52.512;13.300;2023-09-19T04:29:30;18.10;99.90
28244;DHT22;15510;52.512;13.300;2023-09-19T04:31:56;18.00;99.90
28244;DHT22;15510;52.512;13.300;2023-09-19T04:34:24;18.00;99.90
28244;DHT22;15510;52.512;13.300;2023-09-19T04:36:51;17.90;99.90
28244;DHT22;15510;52.512;13.300;2023-09-19T04:39:16;17.90;99.90
28244;DHT22;15510;52.512;13.300;2023-09-19T04:41:43;17.90;99.90
28244;DHT22;15510;52.512;13.300;2023-09-19T04:44:10;17.90;99.90
28244;DHT22;15510;52.512;13.300;2023-09-19T04:46:36;17.90;99.90
28244;DHT22;15510;52.512;13.300;2023-09-19T04:49:02;17.90;99.90
28244;DHT22;15510;52.512;13.300;2023-09-19T04:51:34;17.90;99.90
28244;DHT22;15510;52.512;13.300;2023-09-19T04:54:01;17.80;99.90
28244;DHT22;15510;52.512;13.300;2023-09-19T04:56:28;17.90;99.90
28244;DHT22;15510;52.512;13.300;2023-09-19T04:58:54;17.80;99.90
28244;DHT22;15510;52.512;13.300;2023-09-19T05:01:20;17.70;99.90
28244;DHT22;15510;52.512;13.300;2023-09-19T05:03:54;17.70;99.90
28244;DHT22;15510;52.512;13.300;2023-09-19T05:06:23;17.80;99.90
28244;DHT22;15510;52.512;13.300;2023-09-19T05:08:49;17.80;99.90
28244;DHT22;15510;52.512;13.300;2023-09-19T05:11:18;17.80;99.90
28244;DHT22;15510;52.512;13.300;2023-09-19T05:13:44;17.80;99.90
28244;DHT22;15510;52.512;13.300;2023-09-19T05:16:09;17.80;99.90
28244;DHT22;15510;52.512;13.300;2023-09-19T05:18:36;17.90;99.90
28244;DHT22;15510;52.512;13.300;2023-09-19T05:21:05;17.80;99.90
28244;DHT22;15510;52.512;13.300;2023-09-19T05:23:31;17.80;99.90
28244;DHT22;15510;52.512;13.300;2023-09-19T05:25:56;17.70;99.90
28244;DHT22;15510;52.512;13.300;2023-09-19T05:28:25;17.70;99.90
28244;DHT22;15510;52.512;13.300;2023-09-19T05:30:53;17.70;99.90
28244;DHT22;15510;52.512;13.300;2023-09-19T05:33:19;17.70;99.90
28244;DHT22;15510;52.512;13.300;2023-09-19T05:35:47;17.70;99.90
28244;DHT22;15510;52.512;13.300;2023-09-19T05:38:14;17.70;99.90
28244;DHT22;15510;52.512;13.300;2023-09-19T05:40:41;17.70;99.90
28244;DHT22;15510;52.512;13.300;2023-09-19T05:43:08;17.60;99.90
28244;DHT22;15510;52.512;13.300;2023-09-19T05:45:36;17.70;99.90
28244;DHT22;15510;52.512;13.300;2023-09-19T05:48:13;17.60;99.90
28244;DHT22;15510;52.512;13.300;2023-09-19T05:50:41;17.60;99.90
28244;DHT22;15510;52.512;13.300;2023-09-19T05:53:07;17.60;99.90
28244;DHT22;15510;52.512;13.300;2023-09-19T05:55:33;17.60;99.90
28244;DHT22;15510;52.512;13.300;2023-09-19T05:57:59;17.60;99.90
28244;DHT22;15510;52.512;13.300;2023-09-19T06:00:26;17.70;99.90
28244;DHT22;15510;52.512;13.300;2023-09-19T06:02:53;17.70;99.90
28244;DHT22;15510;52.512;13.300;2023-09-19T06:05:21;17.70;99.90
28244;DHT22;15510;52.512;13.300;2023-09-19T06:07:47;17.70;99.90
28244;DHT22;15510;52.512;13.300;2023-09-19T06:10:13;17.60;99.90
28244;DHT22;15510;52.512;13.300;2023-09-19T06:12:41;17.60;99.90
28244;DHT22;15510;52.512;13.300;2023-09-19T06:15:10;17.60;99.90
28244;DHT22;15510;52.512;13.300;2023-09-19T06:17:46;17.60;99.90
28244;DHT22;15510;52.512;13.300;2023-09-19T06:20:12;17.70;99.90
28244;DHT22;15510;52.512;13.300;2023-09-19T06:22:45;17.70;99.90
28244;DHT22;15510;52.512;13.300;2023-09-19T06:25:16;17.80;99.90
28244;DHT22;15510;52.512;13.300;2023-09-19T06:27:49;17.80;99.90
28244;DHT22;15510;52.512;13.300;2023-09-19T06:30:17;17.80;99.90
28244;DHT22;15510;52.512;13.300;2023-09-19T06:32:44;17.80;99.90
28244;DHT22;15510;52.512;13.300;2023-09-19T06:35:14;17.90;99.90
28244;DHT22;15510;52.512;13.300;2023-09-19T06:37:41;18.00;99.90
28244;DHT22;15510;52.512;13.300;2023-09-19T06:40:11;18.00;99.90
28244;DHT22;15510;52.512;13.300;2023-09-19T06:42:43;18.20;99.90
28244;DHT22;15510;52.512;13.300;2023-09-19T06:45:11;18.20;99.90
28244;DHT22;15510;52.512;13.300;2023-09-19T06:47:39;18.30;99.90
28244;DHT22;15510;52.512;13.300;2023-09-19T06:50:05;18.30;99.90
28244;DHT22;15510;52.512;13.300;2023-09-19T06:52:34;18.40;99.90
28244;DHT22;15510;52.512;13.300;2023-09-19T06:55:00;18.40;99.90
28244;DHT22;15510;52.512;13.300;2023-09-19T06:57:28;18.50;99.90
28244;DHT22;15510;52.512;13.300;2023-09-19T06:59:56;18.70;99.90
28244;DHT22;15510;52.512;13.300;2023-09-19T07:02:22;18.70;99.90
28244;DHT22;15510;52.512;13.300;2023-09-19T07:04:50;18.80;99.90
28244;DHT22;15510;52.512;13.300;2023-09-19T07:07:16;18.90;99.90
28244;DHT22;15510;52.512;13.300;2023-09-19T07:09:41;19.10;99.90
28244;DHT22;15510;52.512;13.300;2023-09-19T07:12:08;19.10;99.90
28244;DHT22;15510;52.512;13.300;2023-09-19T07:14:33;19.10;99.90
28244;DHT22;15510;52.512;13.300;2023-09-19T07:16:59;19.20;99.90
28244;DHT22;15510;52.512;13.300;2023-09-19T07:19:29;19.20;99.90
28244;DHT22;15510;52.512;13.300;2023-09-19T07:21:57;19.30;99.90
28244;DHT22;15510;52.512;13.300;2023-09-19T07:24:24;19.30;99.90
28244;DHT22;15510;52.512;13.300;2023-09-19T07:26:52;19.40;99.90
28244;DHT22;15510;52.512;13.300;2023-09-19T07:29:18;19.40;99.90
28244;DHT22;15510;52.512;13.300;2023-09-19T07:31:44;19.40;99.90
28244;DHT22;15510;52.512;13.300;2023-09-19T07:34:10;19.30;99.90
28244;DHT22;15510;52.512;13.300;2023-09-19T07:36:35;19.40;99.90
28244;DHT22;15510;52.512;13.300;2023-09-19T07:39:03;19.30;99.90
28244;DHT22;15510;52.512;13.300;2023-09-19T07:41:33;19.30;99.90
28244;DHT22;15510;52.512;13.300;2023-09-19T07:43:58;19.30;99.90
28244;DHT22;15510;52.512;13.300;2023-09-19T07:46:27;19.30;99.90
28244;DHT22;15510;52.512;13.300;2023-09-19T07:48:52;19.40;99.90
28244;DHT22;15510;52.512;13.300;2023-09-19T07:51:18;19.40;99.90
28244;DHT22;15510;52.512;13.300;2023-09-19T07:53:44;19.40;99.90
28244;DHT22;15510;52.512;13.300;2023-09-19T07:56:10;19.50;99.90
28244;DHT22;15510;52.512;13.300;2023-09-19T07:58:39;19.70;99.90
28244;DHT22;15510;52.512;13.300;2023-09-19T08:01:07;19.70;99.90
28244;DHT22;15510;52.512;13.300;2023-09-19T08:03:36;19.70;99.90
28244;DHT22;15510;52.512;13.300;2023-09-19T08:06:06;19.70;99.90
28244;DHT22;15510;52.512;13.300;2023-09-19T08:08:35;19.70;99.90
28244;DHT22;15510;52.512;13.300;2023-09-19T08:11:08;19.70;99.90
28244;DHT22;15510;52.512;13.300;2023-09-19T08:13:41;19.60;99.90
28244;DHT22;15510;52.512;13.300;2023-09-19T08:16:10;19.50;99.90
28244;DHT22;15510;52.512;13.300;2023-09-19T08:18:36;19.60;99.90
28244;DHT22;15510;52.512;13.300;2023-09-19T08:21:05;19.50;99.90
28244;DHT22;15510;52.512;13.300;2023-09-19T08:23:38;19.40;99.90
28244;DHT22;15510;52.512;13.300;2023-09-19T08:26:07;19.30;99.90
28244;DHT22;15510;52.512;13.300;2023-09-19T08:28:36;19.30;99.90
28244;DHT22;15510;52.512;13.300;2023-09-19T08:31:06;19.30;99.90
28244;DHT22;15510;52.512;13.300;2023-09-19T08:33:33;19.10;99.90
28244;DHT22;15510;52.512;13.300;2023-09-19T08:36:00;19.00;99.90
28244;DHT22;15510;52.512;13.300;2023-09-19T08:38:26;18.90;99.90
28244;DHT22;15510;52.512;13.300;2023-09-19T08:40:59;18.90;99.90
28244;DHT22;15510;52.512;13.300;2023-09-19T08:43:25;19.00;99.90
28244;DHT22;15510;52.512;13.300;2023-09-19T08:46:18;19.00;99.90
28244;DHT22;15510;52.512;13.300;2023-09-19T08:49:04;19.00;99.90
28244;DHT22;15510;52.512;13.300;2023-09-19T08:51:43;19.10;99.90
28244;DHT22;15510;52.512;13.300;2023-09-19T08:54:29;19.10;99.90
28244;DHT22;15510;52.512;13.300;2023-09-19T08:57:02;19.10;99.90
28244;DHT22;15510;52.512;13.300;2023-09-19T08:59:33;19.10;99.90
28244;DHT22;15510;52.512;13.300;2023-09-19T09:02:01;19.20;99.90
28244;DHT22;15510;52.512;13.300;2023-09-19T09:04:29;19.10;99.90
28244;DHT22;15510;52.512;13.300;2023-09-19T09:06:59;19.10;99.90
28244;DHT22;15510;52.512;13.300;2023-09-19T09:09:28;19.20;99.90
28244;DHT22;15510;52.512;13.300;2023-09-19T09:11:54;19.20;99.90
28244;DHT22;15510;52.512;13.300;2023-09-19T09:14:29;19.20;99.90
28244;DHT22;15510;52.512;13.300;2023-09-19T09:16:55;19.30;99.90
28244;DHT22;15510;52.512;13.300;2023-09-19T09:19:26;19.30;99.90
28244;DHT22;15510;52.512;13.300;2023-09-19T09:21:52;19.30;99.90
28244;DHT22;15510;52.512;13.300;2023-09-19T09:24:31;19.30;99.90
28244;DHT22;15510;52.512;13.300;2023-09-19T09:26:59;19.50;99.90
28244;DHT22;15510;52.512;13.300;2023-09-19T09:29:48;19.60;99.90
28244;DHT22;15510;52.512;13.300;2023-09-19T09:32:33;19.70;99.90
28244;DHT22;15510;52.512;13.300;2023-09-19T09:35:03;19.70;99.90
28244;DHT22;15510;52.512;13.300;2023-09-19T09:37:35;19.70;99.90
28244;DHT22;15510;52.512;13.300;2023-09-19T09:40:04;19.70;99.90
28244;DHT22;15510;52.512;13.300;2023-09-19T09:42:39;19.80;99.90
28244;DHT22;15510;52.512;13.300;2023-09-19T09:45:19;19.70;99.90
28244;DHT22;15510;52.512;13.300;2023-09-19T09:48:04;19.70;99.90
28244;DHT22;15510;52.512;13.300;2023-09-19T09:50:46;19.70;99.90
28244;DHT22;15510;52.512;13.300;2023-09-19T09:53:26;19.80;99.90
28244;DHT22;15510;52.512;13.300;2023-09-19T09:56:01;20.00;99.90
28244;DHT22;15510;52.512;13.300;2023-09-19T09:58:35;20.10;99.90
28244;DHT22;15510;52.512;13.300;2023-09-19T10:01:02;20.20;99.90
28244;DHT22;15510;52.512;13.300;2023-09-19T10:03:38;20.20;99.90
28244;DHT22;15510;52.512;13.300;2023-09-19T10:06:14;20.40;99.90
28244;DHT22;15510;52.512;13.300;2023-09-19T10:09:06;20.40;99.90
28244;DHT22;15510;52.512;13.300;2023-09-19T10:11:44;20.30;99.90
28244;DHT22;15510;52.512;13.300;2023-09-19T10:14:11;20.30;99.90
28244;DHT22;15510;52.512;13.300;2023-09-19T10:16:46;20.30;99.90
28244;DHT22;15510;52.512;13.300;2023-09-19T10:19:16;20.30;99.90
28244;DHT22;15510;52.512;13.300;2023-09-19T10:21:48;20.20;99.90
28244;DHT22;15510;52.512;13.300;2023-09-19T10:24:17;20.30;99.90
28244;DHT22;15510;52.512;13.300;2023-09-19T10:26:45;20.20;99.90
28244;DHT22;15510;52.512;13.300;2023-09-19T10:29:13;20.10;99.90
28244;DHT22;15510;52.512;13.300;2023-09-19T10:31:42;20.20;99.90
28244;DHT22;15510;52.512;13.300;2023-09-19T10:34:17;20.20;99.90
28244;DHT22;15510;52.512;13.300;2023-09-19T10:36:46;20.20;99.90
28244;DHT22;15510;52.512;13.300;2023-09-19T10:39:16;20.30;99.90
28244;DHT22;15510;52.512;13.300;2023-09-19T10:41:51;20.50;99.90
28244;DHT22;15510;52.512;13.300;2023-09-19T10:44:26;20.70;99.90
28244;DHT22;15510;52.512;13.300;2023-09-19T10:46:54;20.70;99.90
28244;DHT22;15510;52.512;13.300;2023-09-19T10:49:21;20.80;99.90
28244;DHT22;15510;52.512;13.300;2023-09-19T10:51:52;20.90;99.90
28244;DHT22;15510;52.512;13.300;2023-09-19T10:54:21;21.10;99.90
28244;DHT22;15510;52.512;13.300;2023-09-19T10:56:53;21.10;99.90
28244;DHT22;15510;52.512;13.300;2023-09-19T10:59:24;21.10;99.90
28244;DHT22;15510;52.512;13.300;2023-09-19T11:01:52;21.00;99.90
28244;DHT22;15510;52.512;13.300;2023-09-19T11:04:33;20.90;99.90
28244;DHT22;15510;52.512;13.300;2023-09-19T11:07:11;20.80;99.90
28244;DHT22;15510;52.512;13.300;2023-09-19T11:09:53;20.80;99.90
28244;DHT22;15510;52.512;13.300;2023-09-19T11:15:04;21.20;99.90
28244;DHT22;15510;52.512;13.300;2023-09-19T11:17:40;21.30;99.90
28244;DHT22;15510;52.512;13.300;2023-09-19T11:30:49;21.90;99.90
28244;DHT22;15510;52.512;13.300;2023-09-19T11:33:29;22.10;99.90
28244;DHT22;15510;52.512;13.300;2023-09-19T11:36:14;22.10;99.90
28244;DHT22;15510;52.512;13.300;2023-09-19T11:49:18;22.20;99.10
28244;DHT22;15510;52.512;13.300;2023-09-19T11:51:52;22.30;99.50
28244;DHT22;15510;52.512;13.300;2023-09-19T11:54:19;22.40;98.90
28244;DHT22;15510;52.512;13.300;2023-09-19T11:56:54;22.30;99.40
28244;DHT22;15510;52.512;13.300;2023-09-19T11:59:27;22.30;98.80
28244;DHT22;15510;52.512;13.300;2023-09-19T12:01:57;22.30;99.50
28244;DHT22;15510;52.512;13.300;2023-09-19T12:04:41;22.20;99.00
28244;DHT22;15510;52.512;13.300;2023-09-19T12:07:13;22.30;99.20
28244;DHT22;15510;52.512;13.300;2023-09-19T12:09:46;22.20;98.40
28244;DHT22;15510;52.512;13.300;2023-09-19T12:12:23;22.30;97.70
28244;DHT22;15510;52.512;13.300;2023-09-19T12:14:53;22.20;97.80
28244;DHT22;15510;52.512;13.300;2023-09-19T12:17:19;22.30;97.80
28244;DHT22;15510;52.512;13.300;2023-09-19T12:19:53;22.40;96.30
28244;DHT22;15510;52.512;13.300;2023-09-19T12:22:19;22.30;96.30
28244;DHT22;15510;52.512;13.300;2023-09-19T12:24:46;22.40;96.20
28244;DHT22;15510;52.512;13.300;2023-09-19T12:27:13;22.40;95.60
28244;DHT22;15510;52.512;13.300;2023-09-19T12:29:47;22.40;95.60
28244;DHT22;15510;52.512;13.300;2023-09-19T12:32:37;22.40;95.20
28244;DHT22;15510;52.512;13.300;2023-09-19T12:35:06;22.50;95.10
28244;DHT22;15510;52.512;13.300;2023-09-19T12:37:44;22.60;94.40
28244;DHT22;15510;52.512;13.300;2023-09-19T12:40:21;22.80;94.60
28244;DHT22;15510;52.512;13.300;2023-09-19T12:42:54;22.70;93.20
28244;DHT22;15510;52.512;13.300;2023-09-19T12:45:29;22.70;94.10
28244;DHT22;15510;52.512;13.300;2023-09-19T12:48:18;22.60;94.10
28244;DHT22;15510;52.512;13.300;2023-09-19T12:51:02;22.70;95.00
28244;DHT22;15510;52.512;13.300;2023-09-19T12:53:36;22.90;94.60
28244;DHT22;15510;52.512;13.300;2023-09-19T12:56:06;22.80;94.20
28244;DHT22;15510;52.512;13.300;2023-09-19T12:58:34;22.70;94.70
28244;DHT22;15510;52.512;13.300;2023-09-19T13:01:01;22.90;94.70
28244;DHT22;15510;52.512;13.300;2023-09-19T13:03:30;22.80;94.60
28244;DHT22;15510;52.512;13.300;2023-09-19T13:06:04;22.70;94.10
28244;DHT22;15510;52.512;13.300;2023-09-19T13:08:32;22.50;94.60
28244;DHT22;15510;52.512;13.300;2023-09-19T13:11:07;22.30;96.00
28244;DHT22;15510;52.512;13.300;2023-09-19T13:13:47;22.20;96.30
28244;DHT22;15510;52.512;13.300;2023-09-19T13:16:21;22.10;97.00
28244;DHT22;15510;52.512;13.300;2023-09-19T13:18:49;22.20;97.10
28244;DHT22;15510;52.512;13.300;2023-09-19T13:21:34;22.30;95.70
28244;DHT22;15510;52.512;13.300;2023-09-19T13:24:22;22.50;95.70
28244;DHT22;15510;52.512;13.300;2023-09-19T13:26:56;22.60;94.80
28244;DHT22;15510;52.512;13.300;2023-09-19T13:29:22;22.60;95.80
28244;DHT22;15510;52.512;13.300;2023-09-19T13:31:52;22.70;95.10
28244;DHT22;15510;52.512;13.300;2023-09-19T13:34:21;22.60;95.40
28244;DHT22;15510;52.512;13.300;2023-09-19T13:36:47;22.60;95.20
28244;DHT22;15510;52.512;13.300;2023-09-19T13:39:17;22.50;95.30
28244;DHT22;15510;52.512;13.300;2023-09-19T13:41:49;22.40;95.50
28244;DHT22;15510;52.512;13.300;2023-09-19T13:44:15;22.20;96.40
28244;DHT22;15510;52.512;13.300;2023-09-19T13:46:42;22.20;95.70
28244;DHT22;15510;52.512;13.300;2023-09-19T13:49:11;22.10;95.60
28244;DHT22;15510;52.512;13.300;2023-09-19T13:51:37;22.00;96.10
28244;DHT22;15510;52.512;13.300;2023-09-19T13:54:03;21.90;96.30
28244;DHT22;15510;52.512;13.300;2023-09-19T13:56:29;21.90;95.70
28244;DHT22;15510;52.512;13.300;2023-09-19T13:58:57;21.90;96.70
28244;DHT22;15510;52.512;13.300;2023-09-19T14:01:25;21.80;96.60
28244;DHT22;15510;52.512;13.300;2023-09-19T14:03:54;21.80;96.80
28244;DHT22;15510;52.512;13.300;2023-09-19T14:06:22;21.90;97.10
28244;DHT22;15510;52.512;13.300;2023-09-19T14:08:48;21.90;97.00
28244;DHT22;15510;52.512;13.300;2023-09-19T14:11:15;22.00;97.30
28244;DHT22;15510;52.512;13.300;2023-09-19T14:13:41;22.00;96.90
28244;DHT22;15510;52.512;13.300;2023-09-19T14:16:12;22.10;97.10
28244;DHT22;15510;52.512;13.300;2023-09-19T14:18:40;22.10;96.90
28244;DHT22;15510;52.512;13.300;2023-09-19T14:21:07;22.10;97.00
28244;DHT22;15510;52.512;13.300;2023-09-19T14:23:37;22.00;96.60
28244;DHT22;15510;52.512;13.300;2023-09-19T14:26:04;22.00;97.00
28244;DHT22;15510;52.512;13.300;2023-09-19T14:28:33;21.90;97.30
28244;DHT22;15510;52.512;13.300;2023-09-19T14:31:09;21.90;97.30
28244;DHT22;15510;52.512;13.300;2023-09-19T14:33:43;22.00;97.60
28244;DHT22;15510;52.512;13.300;2023-09-19T14:36:10;21.90;97.40
28244;DHT22;15510;52.512;13.300;2023-09-19T14:38:37;21.80;97.90
28244;DHT22;15510;52.512;13.300;2023-09-19T14:41:04;21.70;98.60
28244;DHT22;15510;52.512;13.300;2023-09-19T14:43:31;21.70;98.70
28244;DHT22;15510;52.512;13.300;2023-09-19T14:46:03;21.70;98.40
28244;DHT22;15510;52.512;13.300;2023-09-19T14:48:28;21.60;98.90
28244;DHT22;15510;52.512;13.300;2023-09-19T14:50:54;21.60;98.90
28244;DHT22;15510;52.512;13.300;2023-09-19T14:53:21;21.60;99.10
28244;DHT22;15510;52.512;13.300;2023-09-19T14:55:47;21.50;99.20
28244;DHT22;15510;52.512;13.300;2023-09-19T14:58:20;21.40;98.80
28244;DHT22;15510;52.512;13.300;2023-09-19T15:00:47;21.40;99.10
28244;DHT22;15510;52.512;13.300;2023-09-19T15:03:13;21.40;99.10
28244;DHT22;15510;52.512;13.300;2023-09-19T15:05:39;21.40;99.00
28244;DHT22;15510;52.512;13.300;2023-09-19T15:08:05;21.40;99.30
28244;DHT22;15510;52.512;13.300;2023-09-19T15:10:34;21.40;99.40
28244;DHT22;15510;52.512;13.300;2023-09-19T15:13:00;21.40;99.00
28244;DHT22;15510;52.512;13.300;2023-09-19T15:15:30;21.40;98.80
28244;DHT22;15510;52.512;13.300;2023-09-19T15:17:56;21.30;99.40
28244;DHT22;15510;52.512;13.300;2023-09-19T15:20:23;21.20;99.50
28244;DHT22;15510;52.512;13.300;2023-09-19T15:22:50;21.20;99.40
28244;DHT22;15510;52.512;13.300;2023-09-19T15:25:16;21.20;99.50
28244;DHT22;15510;52.512;13.300;2023-09-19T15:27:42;21.20;99.90
28244;DHT22;15510;52.512;13.300;2023-09-19T15:30:13;21.20;99.90
28244;DHT22;15510;52.512;13.300;2023-09-19T15:32:41;21.20;99.90
28244;DHT22;15510;52.512;13.300;2023-09-19T15:35:07;21.10;99.90
28244;DHT22;15510;52.512;13.300;2023-09-19T15:37:36;21.10;99.90
28244;DHT22;15510;52.512;13.300;2023-09-19T15:40:02;21.10;99.90
28244;DHT22;15510;52.512;13.300;2023-09-19T15:42:28;21.10;99.90
28244;DHT22;15510;52.512;13.300;2023-09-19T15:44:54;21.10;99.90
28244;DHT22;15510;52.512;13.300;2023-09-19T15:47:21;20.90;99.90
28244;DHT22;15510;52.512;13.300;2023-09-19T15:49:47;20.90;99.90
28244;DHT22;15510;52.512;13.300;2023-09-19T15:52:17;20.90;99.90
28244;DHT22;15510;52.512;13.300;2023-09-19T15:54:43;20.90;99.90
28244;DHT22;15510;52.512;13.300;2023-09-19T15:57:10;21.00;99.90
28244;DHT22;15510;52.512;13.300;2023-09-19T15:59:38;21.00;99.90
28244;DHT22;15510;52.512;13.300;2023-09-19T16:02:07;21.00;99.90
28244;DHT22;15510;52.512;13.300;2023-09-19T16:04:33;21.00;99.90